Time;durP1;ratioP1;P1;durP2;ratioP2;P2;SDS_P1;SDS_P2;PMS_P1;PMS_P2;Temp;Humidity;BMP_temperature;BMP_pressure;BME280_temperature;BME280_humidity;BME280_pressure;Samples;Min_cycle;Max_cycle;Signal;HPM_P1;HPM_P2
2022/05/20 00:00:48;;;;;;;6.32;3.90;;;;;;;19.09;73.73;96170.81;5020123;28;20199;-76
2022/05/20 00:03:13;;;;;;;9.68;4.25;;;;;;;19.12;73.07;96170.44;5005687;28;20672;-77
2022/05/20 00:05:39;;;;;;;6.00;3.80;;;;;;;19.13;73.00;96180.78;5042893;28;20190;-77
2022/05/20 00:08:04;;;;;;;4.50;4.00;;;;;;;19.07;73.70;96170.97;5026087;28;20684;-77
2022/05/20 00:10:30;;;;;;;4.80;4.05;;;;;;;19.10;73.90;96167.19;5027450;28;20275;-78
2022/05/20 00:12:57;;;;;;;6.68;3.88;;;;;;;19.04;73.82;96167.91;5009438;28;20590;-78
2022/05/20 00:15:25;;;;;;;6.78;4.13;;;;;;;19.09;73.87;96161.09;5035437;28;20182;-78
2022/05/20 00:17:51;;;;;;;8.77;4.22;;;;;;;19.08;73.78;96163.88;5019089;28;20187;-77
2022/05/20 00:20:18;;;;;;;6.80;4.53;;;;;;;19.02;74.49;96154.94;5006361;28;20207;-79
2022/05/20 00:22:43;;;;;;;6.38;4.25;;;;;;;18.96;74.69;96158.28;5035271;28;20253;-77
2022/05/20 00:27:54;;;;;;;7.57;4.40;;;;;;;18.91;75.46;96147.53;5020273;28;20218;-78
2022/05/20 00:30:20;;;;;;;11.38;4.75;;;;;;;18.96;75.46;96148.59;5036626;28;20220;-79
2022/05/20 00:32:45;;;;;;;7.32;4.32;;;;;;;18.94;76.05;96153.22;5017943;28;20210;-78
2022/05/20 00:35:14;;;;;;;11.27;4.80;;;;;;;18.72;77.06;96148.88;5001635;28;20271;-78
2022/05/20 00:37:40;;;;;;;6.97;4.57;;;;;;;18.79;76.66;96146.34;5010990;28;20270;-77
2022/05/20 00:40:08;;;;;;;6.13;4.72;;;;;;;18.74;77.28;96146.09;5021737;28;20667;-77
2022/05/20 00:42:34;;;;;;;4.95;4.45;;;;;;;18.70;77.37;96145.63;5021725;28;20207;-76
2022/05/20 00:44:59;;;;;;;8.00;4.35;;;;;;;18.79;77.11;96144.53;5039986;28;20182;-78
2022/05/20 00:47:25;;;;;;;7.47;4.65;;;;;;;18.75;77.51;96145.91;5022937;28;20214;-78
2022/05/20 00:49:53;;;;;;;9.57;5.20;;;;;;;18.70;77.68;96134.31;5022258;28;20179;-78
2022/05/20 00:52:21;;;;;;;7.50;5.07;;;;;;;18.61;78.44;96139.63;5002490;28;20210;-78
2022/05/20 00:54:50;;;;;;;6.22;5.03;;;;;;;18.59;78.45;96138.19;5033932;28;20183;-77
2022/05/20 00:57:18;;;;;;;6.28;5.35;;;;;;;18.56;78.81;96134.13;5038223;28;20203;-78
2022/05/20 00:59:51;;;;;;;10.45;5.45;;;;;;;18.49;79.23;96135.03;5019747;28;20195;-78
2022/05/20 01:02:18;;;;;;;9.45;5.35;;;;;;;18.45;79.31;96136.38;5023019;28;20186;-78
2022/05/20 01:04:43;;;;;;;7.30;4.65;;;;;;;18.46;79.46;96127.47;5015673;28;20243;-78
2022/05/20 01:07:09;;;;;;;5.53;4.90;;;;;;;18.54;79.41;96137.91;5001467;28;20246;-77
2022/05/20 01:09:38;;;;;;;6.93;4.90;;;;;;;18.49;78.93;96129.75;5000121;28;20187;-78
2022/05/20 01:12:04;;;;;;;5.75;5.13;;;;;;;18.40;79.89;96135.13;5021900;28;20188;-77
2022/05/20 01:14:30;;;;;;;7.10;5.53;;;;;;;18.53;78.98;96128.38;5020214;28;20178;-78
2022/05/20 01:16:55;;;;;;;8.52;5.63;;;;;;;18.57;78.79;96119.16;5043230;28;20198;-78
2022/05/20 01:19:46;;;;;;;6.15;4.88;;;;;;;18.63;79.02;96126.28;5033548;28;20194;-78
2022/05/20 01:22:13;;;;;;;8.73;5.75;;;;;;;18.55;79.51;96126.38;5039993;28;20183;-73
2022/05/20 01:24:38;;;;;;;8.60;5.50;;;;;;;18.50;79.45;96126.94;5032882;28;20199;-75
2022/05/20 01:27:04;;;;;;;7.63;5.50;;;;;;;18.53;79.20;96117.88;5017720;28;20198;-75
2022/05/20 01:29:29;;;;;;;5.80;5.20;;;;;;;18.62;78.68;96116.78;5034180;28;20252;-77
2022/05/20 01:31:54;;;;;;;9.05;6.00;;;;;;;18.52;79.16;96126.75;5018194;28;20374;-77
2022/05/20 01:34:20;;;;;;;8.48;5.78;;;;;;;18.32;80.63;96119.44;5029736;28;20183;-77
2022/05/20 01:36:45;;;;;;;8.70;6.03;;;;;;;18.31;80.77;96115.16;5030772;28;20201;-75
2022/05/20 01:39:11;;;;;;;6.65;5.43;;;;;;;18.28;80.93;96114.69;5016832;28;20246;-75
2022/05/20 01:41:44;;;;;;;7.65;5.20;;;;;;;18.43;80.40;96114.72;5022594;28;20194;-77
2022/05/20 01:44:32;;;;;;;9.07;6.25;;;;;;;18.42;80.43;96110.44;5017519;28;20191;-77
2022/05/20 01:47:17;;;;;;;7.72;5.55;;;;;;;18.40;79.99;96111.44;5019465;28;20629;-77
2022/05/20 01:49:48;;;;;;;8.23;6.07;;;;;;;18.31;80.76;96114.34;5019378;28;20179;-76
2022/05/20 01:52:23;;;;;;;7.97;6.03;;;;;;;18.32;80.74;96111.53;5018794;28;20728;-77
2022/05/20 01:55:23;;;;;;;6.65;5.65;;;;;;;18.35;80.89;96116.44;5031879;28;20206;-76
2022/05/20 01:57:56;;;;;;;8.73;5.53;;;;;;;18.24;81.23;96111.63;4958098;29;20197;-76
2022/05/20 02:00:25;;;;;;;9.38;5.35;;;;;;;18.22;81.02;96121.53;4960015;28;20307;-77
2022/05/20 02:03:03;;;;;;;5.95;5.35;;;;;;;18.30;80.62;96113.53;4963122;28;20617;-76
2022/05/20 02:05:44;;;;;;;7.68;5.97;;;;;;;18.32;80.34;96114.16;4960442;28;20670;-77
2022/05/20 02:08:14;;;;;;;9.40;6.22;;;;;;;18.30;80.71;96110.09;4983684;28;20196;-77
2022/05/20 02:10:48;;;;;;;6.00;5.18;;;;;;;18.40;79.84;96106.19;4959473;28;20173;-77
2022/05/20 02:13:16;;;;;;;6.63;5.20;;;;;;;18.42;79.69;96105.19;4944085;28;20554;-76
2022/05/20 02:15:48;;;;;;;6.75;5.80;;;;;;;18.28;80.26;96105.00;4975961;28;20208;-77
2022/05/20 02:18:19;;;;;;;8.38;5.78;;;;;;;18.29;80.31;96105.84;4976884;28;20728;-77
2022/05/20 02:20:48;;;;;;;6.63;5.78;;;;;;;18.36;80.02;96110.16;4960136;28;20304;-75
2022/05/20 02:23:17;;;;;;;7.20;5.60;;;;;;;18.29;80.30;96103.22;4977799;28;20213;-77
2022/05/20 02:25:48;;;;;;;6.15;4.95;;;;;;;18.25;80.52;96100.13;4960631;28;20224;-77
2022/05/20 02:28:31;;;;;;;10.90;5.85;;;;;;;18.32;79.82;96106.28;4971966;28;20205;-76
2022/05/20 02:30:56;;;;;;;8.10;5.47;;;;;;;18.33;79.64;96107.09;4944339;28;20180;-77
2022/05/20 02:33:23;;;;;;;8.10;5.80;;;;;;;18.29;79.63;96105.84;4986988;28;20191;-77
2022/05/20 02:35:49;;;;;;;8.93;5.47;;;;;;;18.29;79.45;96105.84;5001737;28;20569;-77
2022/05/20 02:38:17;;;;;;;8.50;5.07;;;;;;;18.39;78.51;96096.69;5029608;28;20261;-77
2022/05/20 02:40:45;;;;;;;6.20;5.15;;;;;;;18.45;77.74;96102.19;5016467;28;20226;-77
2022/05/20 02:43:11;;;;;;;8.82;5.57;;;;;;;18.49;77.88;96103.47;5016478;28;20637;-77
2022/05/20 02:45:38;;;;;;;9.20;5.60;;;;;;;18.49;77.55;96098.22;5015594;28;20209;-76
2022/05/20 02:48:03;;;;;;;7.95;4.43;;;;;;;18.59;76.71;96102.19;5003261;28;20181;-77
2022/05/20 02:50:29;;;;;;;5.75;5.15;;;;;;;18.65;76.29;96096.22;5020424;28;20175;-77
2022/05/20 02:52:54;;;;;;;8.25;5.10;;;;;;;18.58;76.51;96111.06;5019078;28;20235;-76
2022/05/20 02:55:19;;;;;;;8.30;4.80;;;;;;;18.57;75.92;96103.38;5017485;28;20228;-77
2022/05/20 02:57:44;;;;;;;6.22;5.10;;;;;;;18.60;75.87;96097.72;5001508;28;20279;-76
2022/05/20 03:05:39;;;;;;;9.43;5.40;;;;;;;18.72;74.45;96093.66;5005102;28;20221;-77
2022/05/20 03:08:05;;;;;;;6.10;4.40;;;;;;;18.76;74.01;96097.56;5036170;28;20273;-77
2022/05/20 03:10:30;;;;;;;7.00;4.38;;;;;;;18.80;73.81;96098.81;5037960;28;20253;-77
2022/05/20 03:13:03;;;;;;;7.00;4.70;;;;;;;18.81;73.38;96100.44;4999481;28;20736;-77
2022/05/20 03:15:28;;;;;;;5.20;4.63;;;;;;;18.95;72.19;96102.22;5025934;28;20175;-77
2022/05/20 03:17:54;;;;;;;7.35;4.70;;;;;;;18.98;72.17;96100.22;5011200;28;20188;-75
2022/05/20 03:20:20;;;;;;;9.07;4.90;;;;;;;19.05;71.50;96103.72;5012638;28;20203;-77
2022/05/20 03:22:45;;;;;;;4.85;4.30;;;;;;;19.09;71.42;96099.75;5012066;28;20253;-77
2022/05/20 03:25:10;;;;;;;7.40;4.40;;;;;;;19.07;71.20;96099.91;5029544;28;20218;-77
2022/05/20 03:27:37;;;;;;;6.20;4.93;;;;;;;19.16;70.97;96108.50;5033849;28;20210;-77
2022/05/20 03:30:04;;;;;;;5.70;4.97;;;;;;;19.15;71.05;96096.34;5018195;28;20205;-77
2022/05/20 03:32:29;;;;;;;8.82;4.97;;;;;;;19.12;71.18;96096.72;5036462;28;20185;-77
2022/05/20 03:34:56;;;;;;;8.27;4.88;;;;;;;19.11;71.15;96103.81;5021508;28;20187;-77
2022/05/20 03:37:22;;;;;;;5.95;4.85;;;;;;;19.13;70.67;96098.34;4999960;28;20202;-75
2022/05/20 03:39:47;;;;;;;7.65;4.60;;;;;;;19.14;70.73;96098.16;5017407;28;20203;-78
2022/05/20 03:42:12;;;;;;;6.28;5.00;;;;;;;19.07;71.05;96104.34;5014869;28;20269;-77
2022/05/20 03:44:38;;;;;;;6.32;4.50;;;;;;;19.09;71.27;96099.75;5029339;28;20183;-77
2022/05/20 03:47:04;;;;;;;6.13;4.55;;;;;;;19.16;71.08;96097.97;5035366;28;20198;-76
2022/05/20 03:49:29;;;;;;;5.25;4.75;;;;;;;19.18;70.46;96095.97;5034686;28;20182;-77
2022/05/20 03:51:56;;;;;;;6.82;4.70;;;;;;;19.15;71.05;96099.78;5034003;28;20178;-77
2022/05/20 03:54:23;;;;;;;5.03;4.43;;;;;;;19.17;70.78;96100.44;5025010;28;20218;-77
2022/05/20 03:56:48;;;;;;;5.50;4.30;;;;;;;19.14;70.98;96089.44;4999883;28;20206;-77
2022/05/20 03:59:14;;;;;;;6.07;4.65;;;;;;;19.22;70.18;96095.41;5000262;28;20179;-77
2022/05/20 04:01:56;;;;;;;5.40;4.90;;;;;;;19.23;70.50;96096.22;4999726;28;20445;-78
2022/05/20 04:04:23;;;;;;;6.20;4.88;;;;;;;19.24;70.07;96096.03;5025012;28;20197;-78
2022/05/20 04:06:48;;;;;;;9.30;4.65;;;;;;;19.27;70.09;96092.22;5018325;28;20212;-77
2022/05/20 04:09:14;;;;;;;9.13;5.05;;;;;;;19.22;69.93;96086.69;4992481;28;20656;-77
2022/05/20 04:11:39;;;;;;;7.07;5.47;;;;;;;19.29;69.78;96087.56;5013777;28;20266;-77
2022/05/20 04:14:05;;;;;;;6.82;4.63;;;;;;;19.35;69.64;96094.72;5009180;28;20178;-76
2022/05/20 04:16:30;;;;;;;5.18;4.50;;;;;;;19.38;68.96;96096.16;5037090;28;20195;-78
2022/05/20 04:18:56;;;;;;;6.35;5.65;;;;;;;19.45;69.27;96089.97;5017497;28;20178;-78
2022/05/20 04:21:22;;;;;;;5.10;4.45;;;;;;;19.53;69.25;96092.47;5035129;28;20547;-78
2022/05/20 04:23:47;;;;;;;7.18;4.57;;;;;;;19.63;68.41;96091.34;5033061;28;20178;-78
2022/05/20 04:26:13;;;;;;;5.43;4.93;;;;;;;19.74;67.29;96093.47;5016016;28;20207;-78
2022/05/20 04:28:39;;;;;;;5.57;4.50;;;;;;;19.95;67.04;96093.41;5021621;28;20781;-79
2022/05/20 04:31:06;;;;;;;8.68;4.53;;;;;;;20.03;66.56;96095.06;5034759;28;20294;-79
2022/05/20 04:33:31;;;;;;;7.95;4.88;;;;;;;20.30;65.52;96090.78;5012992;28;20653;-77
2022/05/20 04:35:56;;;;;;;5.10;4.53;;;;;;;21.20;62.41;96093.19;4998953;28;20207;-78
2022/05/20 04:38:22;;;;;;;5.82;4.10;;;;;;;21.87;59.72;96088.75;5019596;28;20246;-78
2022/05/20 04:46:56;;;;;;;6.47;4.47;;;;;;;22.25;58.21;96096.03;5036340;28;20191;-79
2022/05/20 04:49:02;;;;;;;6.78;4.38;;;;;;;23.62;53.44;96086.88;5036060;28;20243;-78
2022/05/20 04:51:27;;;;;;;5.70;4.60;;;;;;;24.78;49.91;96096.75;5022735;28;20687;-79
2022/05/20 04:56:36;;;;;;;6.57;4.40;;;;;;;26.08;46.46;96096.94;5023814;28;20753;-78
2022/05/20 04:59:03;;;;;;;4.85;4.32;;;;;;;26.11;45.66;96096.47;5022321;28;20190;-78
2022/05/20 05:01:28;;;;;;;7.00;4.03;;;;;;;26.78;44.51;96091.56;5039340;28;20182;-78
2022/05/20 05:03:54;;;;;;;7.70;4.57;;;;;;;26.49;44.38;96103.19;5034044;28;20183;-78
2022/05/20 05:06:19;;;;;;;7.47;4.13;;;;;;;26.62;44.50;96097.59;5025920;28;20265;-79
2022/05/20 05:08:44;;;;;;;6.85;4.82;;;;;;;26.40;44.64;96101.91;5036150;28;20195;-79
2022/05/20 05:11:09;;;;;;;8.25;4.75;;;;;;;26.01;45.99;96100.75;5041030;28;20178;-76
2022/05/20 05:13:35;;;;;;;5.90;4.18;;;;;;;26.29;44.85;96105.38;5056425;28;20187;-75
2022/05/20 05:16:05;;;;;;;6.40;4.30;;;;;;;26.10;45.41;96116.16;5051417;28;20214;-75
2022/05/20 05:18:31;;;;;;;6.22;4.60;;;;;;;26.91;43.77;96117.09;5030702;28;20207;-79
2022/05/20 05:20:56;;;;;;;6.03;5.00;;;;;;;26.61;44.89;96122.63;5023630;28;20778;-77
2022/05/20 05:23:22;;;;;;;6.13;4.70;;;;;;;27.16;43.29;96122.16;5022767;28;20182;-78
2022/05/20 05:25:47;;;;;;;7.15;3.97;;;;;;;27.38;42.93;96116.94;5041968;28;20219;-78
2022/05/20 05:28:13;;;;;;;7.28;4.57;;;;;;;28.07;41.18;96125.59;5030611;28;20219;-76
2022/05/20 05:30:42;;;;;;;5.47;4.10;;;;;;;28.42;40.13;96124.53;5009847;28;20538;-78
2022/05/20 05:33:08;;;;;;;6.50;4.40;;;;;;;27.46;42.76;96123.75;4998998;28;20299;-77
2022/05/20 05:35:34;;;;;;;5.75;4.32;;;;;;;27.65;41.88;96119.81;4999482;28;20227;-78
2022/05/20 05:37:59;;;;;;;5.82;4.07;;;;;;;28.46;40.54;96118.47;5019365;28;20189;-77
2022/05/20 05:40:28;;;;;;;8.32;4.65;;;;;;;27.91;41.15;96124.56;5025652;28;20221;-77
2022/05/20 05:42:55;;;;;;;8.02;4.20;;;;;;;28.40;40.34;96119.44;5028730;28;20183;-78
2022/05/20 05:45:21;;;;;;;5.40;4.40;;;;;;;28.52;40.88;96115.84;5016667;28;20194;-78
2022/05/20 05:47:51;;;;;;;5.35;4.30;;;;;;;27.72;42.46;96117.03;5027733;28;20186;-78
2022/05/20 05:50:17;;;;;;;6.32;4.60;;;;;;;28.49;40.50;96107.28;5016983;28;20644;-78
2022/05/20 05:52:42;;;;;;;5.22;4.65;;;;;;;29.61;37.68;96113.97;5003464;28;20487;-78
2022/05/20 05:55:08;;;;;;;7.80;4.38;;;;;;;31.01;35.05;96113.56;5010928;28;20252;-78
2022/05/20 05:57:34;;;;;;;6.13;4.03;;;;;;;31.73;33.60;96116.41;5037977;28;20198;-78
2022/05/20 05:59:59;;;;;;;5.40;4.38;;;;;;;32.17;33.55;96121.28;5009733;28;20211;-78
2022/05/20 06:02:25;;;;;;;6.93;4.22;;;;;;;32.18;32.58;96112.13;5011744;28;20205;-79
2022/05/20 06:04:51;;;;;;;7.03;4.30;;;;;;;31.48;33.96;96119.88;5030350;28;20689;-79
2022/05/20 06:07:17;;;;;;;7.57;4.63;;;;;;;33.29;31.80;96118.25;5026464;28;20272;-79
2022/05/20 06:09:42;;;;;;;5.13;4.20;;;;;;;31.88;33.41;96121.81;5028161;28;20182;-75
2022/05/20 06:12:09;;;;;;;6.80;4.45;;;;;;;32.49;33.07;96123.66;5017877;28;20591;-75
2022/05/20 06:14:34;;;;;;;7.22;4.63;;;;;;;31.97;33.25;96125.56;5028071;28;20269;-76
2022/05/20 06:17:00;;;;;;;5.72;4.60;;;;;;;32.81;31.79;96132.16;5017611;28;20302;-76
2022/05/20 06:19:25;;;;;;;5.13;4.30;;;;;;;33.89;30.91;96124.38;5001389;28;20210;-76
2022/05/20 06:21:51;;;;;;;8.07;5.13;;;;;;;33.22;31.79;96126.66;5020402;28;20244;-76
2022/05/20 06:24:17;;;;;;;5.32;4.57;;;;;;;32.17;33.24;96126.66;4998146;28;20545;-77
2022/05/20 06:26:42;;;;;;;9.25;5.13;;;;;;;29.38;38.10;96119.59;5001837;28;20199;-76
2022/05/20 06:29:08;;;;;;;7.22;4.97;;;;;;;29.63;38.61;96121.72;5005258;28;20187;-78
2022/05/20 06:31:33;;;;;;;5.85;4.72;;;;;;;28.85;39.63;96121.09;5016791;28;20574;-78
2022/05/20 06:33:59;;;;;;;5.50;5.00;;;;;;;28.81;39.84;96120.00;5004167;28;20205;-77
2022/05/20 06:41:56;;;;;;;6.28;4.72;;;;;;;28.58;41.25;96114.88;5027888;28;20185;-78
2022/05/20 06:44:22;;;;;;;7.75;4.82;;;;;;;29.01;40.80;96117.59;5023255;28;20202;-77
2022/05/20 06:46:47;;;;;;;5.93;4.28;;;;;;;30.51;37.37;96111.41;5023715;28;20210;-79
2022/05/20 06:49:13;;;;;;;7.68;4.68;;;;;;;31.70;35.81;96122.31;5019622;28;20179;-76
2022/05/20 06:51:38;;;;;;;6.47;4.30;;;;;;;32.95;32.29;96117.09;4999047;28;20190;-78
2022/05/20 06:54:07;;;;;;;6.10;4.45;;;;;;;31.28;35.46;96117.97;5006561;28;20175;-76
2022/05/20 06:56:33;;;;;;;5.82;5.22;;;;;;;32.06;34.14;96120.44;5022030;28;20195;-77
2022/05/20 06:59:00;;;;;;;6.68;4.80;;;;;;;32.67;33.35;96120.38;5021936;28;20231;-78
2022/05/20 07:01:26;;;;;;;6.90;4.40;;;;;;;30.93;35.63;96124.78;5020751;28;20213;-77
2022/05/20 07:03:52;;;;;;;6.53;4.60;;;;;;;29.19;39.28;96121.78;5004490;28;20187;-76
2022/05/20 07:06:17;;;;;;;8.50;4.30;;;;;;;30.91;35.95;96128.78;5006594;28;20227;-76
2022/05/20 07:08:48;;;;;;;6.75;4.50;;;;;;;31.41;34.65;96124.69;5022956;28;20274;-78
2022/05/20 07:11:14;;;;;;;6.65;4.47;;;;;;;32.14;34.32;96128.78;5023913;28;20171;-76
2022/05/20 07:13:39;;;;;;;4.80;4.25;;;;;;;32.65;32.89;96122.53;5023785;28;20195;-77
2022/05/20 07:16:05;;;;;;;5.88;4.28;;;;;;;34.53;29.86;96126.75;5007148;28;20198;-77
2022/05/20 07:18:31;;;;;;;7.18;4.30;;;;;;;33.96;30.39;96120.28;5014525;28;20206;-78
2022/05/20 07:20:57;;;;;;;6.40;4.40;;;;;;;34.64;28.58;96112.09;5016311;28;20226;-77
2022/05/20 07:23:25;;;;;;;6.55;4.60;;;;;;;34.20;29.98;96119.53;5014293;28;20644;-78
2022/05/20 07:25:51;;;;;;;8.50;4.82;;;;;;;33.70;30.73;96110.75;5034455;28;20738;-78
2022/05/20 07:28:16;;;;;;;8.52;4.25;;;;;;;33.07;30.85;96110.56;5018646;28;20193;-78
2022/05/20 07:30:42;;;;;;;6.50;4.47;;;;;;;34.06;29.71;96114.78;5018324;28;20254;-77
2022/05/20 07:33:07;;;;;;;6.30;4.90;;;;;;;33.06;30.57;96111.66;5007910;28;20183;-78
2022/05/20 07:35:32;;;;;;;5.88;4.60;;;;;;;33.18;30.30;96104.06;5017585;28;20202;-77
2022/05/20 07:37:58;;;;;;;9.10;4.63;;;;;;;33.19;30.41;96109.16;5015741;28;20179;-77
2022/05/20 07:40:23;;;;;;;5.72;4.57;;;;;;;33.40;30.17;96109.91;5015207;28;20285;-78
2022/05/20 07:42:48;;;;;;;5.97;4.05;;;;;;;32.82;31.08;96109.56;5000671;28;20183;-78
2022/05/20 07:45:15;;;;;;;5.57;4.97;;;;;;;32.18;32.44;96104.88;5031637;28;20197;-76
2022/05/20 07:47:41;;;;;;;7.53;4.53;;;;;;;32.46;33.00;96111.56;5015975;28;20252;-77
2022/05/20 07:50:07;;;;;;;5.22;4.65;;;;;;;32.26;32.31;96104.34;5016342;28;20179;-77
2022/05/20 07:55:23;;;;;;;6.70;4.45;;;;;;;32.40;32.04;96104.59;5035226;28;20196;-77
2022/05/20 07:57:48;;;;;;;4.63;4.10;;;;;;;31.83;33.38;96106.50;5029203;28;20183;-78
2022/05/20 08:00:14;;;;;;;5.07;4.57;;;;;;;31.95;32.46;96097.38;5017392;28;20205;-78
2022/05/20 08:02:42;;;;;;;5.68;5.10;;;;;;;32.07;32.96;96100.56;5002457;28;20183;-78
2022/05/20 08:05:08;;;;;;;5.97;4.40;;;;;;;31.61;33.03;96100.53;5022719;28;20192;-78
2022/05/20 08:07:35;;;;;;;6.88;4.47;;;;;;;31.55;34.24;96094.38;5034994;28;20202;-76
2022/05/20 08:10:03;;;;;;;5.75;4.50;;;;;;;31.30;34.94;96091.66;5004793;28;20552;-77
2022/05/20 08:12:28;;;;;;;7.03;5.10;;;;;;;31.91;32.72;96096.31;5014317;28;20195;-77
2022/05/20 08:14:53;;;;;;;8.77;4.85;;;;;;;31.98;33.36;96094.97;5027724;28;20174;-78
2022/05/20 08:17:21;;;;;;;7.75;4.55;;;;;;;30.92;34.35;96090.16;5042042;28;20202;-77
2022/05/20 08:19:47;;;;;;;5.80;4.20;;;;;;;30.39;35.34;96086.69;5011507;28;20298;-77
2022/05/20 08:22:14;;;;;;;5.25;4.75;;;;;;;30.71;33.16;96089.28;5025246;28;20652;-77
2022/05/20 08:24:39;;;;;;;5.30;4.10;;;;;;;30.01;34.91;96088.56;4995879;28;20699;-77
2022/05/20 08:27:05;;;;;;;4.95;4.45;;;;;;;29.25;36.21;96086.03;5031083;28;20210;-76
2022/05/20 08:29:33;;;;;;;4.53;3.63;;;;;;;29.59;34.75;96081.28;5020664;28;20230;-77
2022/05/20 08:31:58;;;;;;;8.85;4.10;;;;;;;30.02;33.55;96087.50;5004620;28;20186;-77
2022/05/20 08:34:23;;;;;;;7.07;4.60;;;;;;;29.64;36.13;96083.19;5035554;28;20188;-77
2022/05/20 08:36:48;;;;;;;6.63;4.57;;;;;;;29.33;37.31;96074.03;5039756;28;20214;-78
2022/05/20 08:39:14;;;;;;;4.78;4.35;;;;;;;29.52;37.79;96069.19;5011010;28;20175;-78
2022/05/20 08:41:44;;;;;;;8.55;4.50;;;;;;;29.86;36.56;96072.38;5012369;28;20727;-79
2022/05/20 08:44:12;;;;;;;7.93;4.28;;;;;;;29.28;36.93;96074.00;5029675;28;20245;-78
2022/05/20 08:46:39;;;;;;;7.07;4.85;;;;;;;29.40;37.28;96065.81;5017086;28;20225;-79
2022/05/20 08:49:06;;;;;;;7.65;4.60;;;;;;;29.61;35.99;96065.78;5022842;28;20186;-77
2022/05/20 08:51:33;;;;;;;6.13;4.55;;;;;;;29.84;35.97;96069.97;5010943;28;20185;-77
2022/05/20 08:53:58;;;;;;;6.15;4.10;;;;;;;29.90;36.27;96074.31;5021993;28;20237;-78
2022/05/20 08:56:25;;;;;;;7.45;4.43;;;;;;;29.09;38.00;96078.09;5018145;28;20692;-79
2022/05/20 08:59:01;;;;;;;7.75;4.65;;;;;;;29.69;35.68;96072.53;5014610;28;20256;-78
2022/05/20 09:01:33;;;;;;;6.65;4.38;;;;;;;29.93;35.52;96075.66;4996018;28;20210;-79
2022/05/20 09:03:58;;;;;;;4.90;4.25;;;;;;;29.85;35.33;96068.09;5013619;28;20233;-76
2022/05/20 09:06:25;;;;;;;5.68;4.25;;;;;;;29.17;37.17;96065.09;5015400;28;20202;-75
2022/05/20 09:09:10;;;;;;;7.22;4.50;;;;;;;28.50;38.85;96068.81;5022769;28;20190;-77
2022/05/20 09:11:36;;;;;;;6.00;4.65;;;;;;;27.54;40.19;96062.81;5010769;28;20179;-77
2022/05/20 09:17:09;;;;;;;7.47;4.38;;;;;;;28.54;39.00;96039.78;5017658;28;20698;-78
2022/05/20 09:19:35;;;;;;;5.72;4.50;;;;;;;28.29;38.68;96042.13;4999359;28;20214;-78
2022/05/20 09:22:08;;;;;;;6.95;4.55;;;;;;;28.37;38.89;96041.69;5003321;28;20185;-79
2022/05/20 09:24:40;;;;;;;6.10;4.40;;;;;;;28.71;38.73;96039.69;4996799;28;20221;-79
2022/05/20 09:27:11;;;;;;;6.00;4.05;;;;;;;28.44;38.74;96023.59;4997034;28;20218;-77
2022/05/20 09:29:43;;;;;;;5.55;4.15;;;;;;;28.05;39.28;96030.81;5017295;28;20266;-76
2022/05/20 09:32:29;;;;;;;5.75;4.22;;;;;;;28.21;39.91;96027.28;5032721;28;20678;-77
2022/05/20 09:35:18;;;;;;;6.10;4.15;;;;;;;28.27;37.72;96033.50;5013645;28;20310;-77
2022/05/20 09:37:45;;;;;;;7.28;4.28;;;;;;;28.52;36.49;96025.03;5022879;28;20710;-77
2022/05/20 09:40:24;;;;;;;5.43;3.53;;;;;;;28.83;35.91;96027.00;5003204;28;20203;-77
2022/05/20 09:43:01;;;;;;;5.28;3.75;;;;;;;29.22;35.81;96024.19;5014569;28;20678;-77
2022/05/20 09:45:27;;;;;;;7.60;4.22;;;;;;;29.63;35.82;96025.38;5015936;28;20186;-76
2022/05/20 09:47:56;;;;;;;6.53;3.70;;;;;;;29.71;33.95;96013.41;5011674;28;20186;-75
2022/05/20 09:50:34;;;;;;;5.47;3.60;;;;;;;29.67;34.21;95996.22;5013539;28;20190;-77
2022/05/20 09:53:26;;;;;;;7.25;3.92;;;;;;;29.77;34.86;96004.31;5034817;28;20179;-78
2022/05/20 09:56:12;;;;;;;7.00;3.50;;;;;;;29.70;32.10;95996.53;5014682;28;20507;-77
2022/05/20 09:58:38;;;;;;;6.18;3.20;;;;;;;29.56;33.18;96009.53;5025512;28;20273;-78
2022/05/20 10:01:08;;;;;;;5.25;4.07;;;;;;;29.71;31.98;95998.16;5007014;28;20295;-78
2022/05/20 10:03:37;;;;;;;8.27;3.55;;;;;;;29.56;31.06;96009.53;5024119;28;20176;-76
2022/05/20 10:06:17;;;;;;;4.88;3.25;;;;;;;30.05;30.44;95995.97;5013735;28;20706;-77
2022/05/20 10:09:05;;;;;;;5.15;3.20;;;;;;;30.15;29.85;95993.34;5027908;28;20186;-77
2022/05/20 10:11:38;;;;;;;5.20;3.28;;;;;;;30.24;29.19;96000.91;5007721;28;20770;-77
2022/05/20 10:14:10;;;;;;;10.02;3.30;;;;;;;29.95;29.26;96001.25;5003367;28;20187;-76
2022/05/20 10:16:38;;;;;;;5.80;3.30;;;;;;;29.75;29.57;95999.25;5022568;28;20257;-76
2022/05/20 10:19:15;;;;;;;6.15;3.25;;;;;;;29.90;30.56;96015.41;5020994;28;20313;-77
2022/05/20 10:22:01;;;;;;;5.80;3.33;;;;;;;30.13;30.31;96014.25;5029042;28;20189;-77
2022/05/20 10:25:03;;;;;;;7.03;3.15;;;;;;;30.46;29.12;96006.88;5010552;28;20179;-76
2022/05/20 10:27:48;;;;;;;6.85;3.10;;;;;;;30.50;27.94;95991.09;5013241;28;20692;-77
2022/05/20 10:33:07;;;;;;;5.78;3.15;;;;;;;30.33;29.35;95981.38;5027822;28;20635;-77
2022/05/20 10:36:03;;;;;;;6.82;3.22;;;;;;;30.28;29.41;95978.66;5007001;28;20213;-77
2022/05/20 10:38:50;;;;;;;7.43;3.15;;;;;;;29.97;29.70;95968.88;5013807;28;20175;-78
2022/05/20 10:41:18;;;;;;;5.93;2.75;;;;;;;29.91;30.82;95976.06;5021903;28;20206;-77
2022/05/20 10:49:55;;;;;;;7.55;3.35;;;;;;;30.55;27.86;95954.38;5013715;28;20193;-78
2022/05/20 10:52:46;;;;;;;6.55;3.22;;;;;;;30.37;29.08;95962.91;5019364;28;20187;-78
2022/05/20 10:55:35;;;;;;;7.93;3.28;;;;;;;29.83;29.57;95960.47;4997455;28;20209;-77
2022/05/20 10:58:29;;;;;;;8.85;3.35;;;;;;;30.01;29.33;95943.97;5022243;28;20186;-77
2022/05/20 11:00:55;;;;;;;5.72;3.28;;;;;;;30.36;28.29;95939.88;5022449;28;20194;-76
2022/05/20 11:03:39;;;;;;;11.50;3.42;;;;;;;30.16;29.52;95933.38;5015208;28;20249;-78
2022/05/20 11:06:23;;;;;;;7.70;3.05;;;;;;;30.07;29.12;95924.22;5009531;28;20239;-79
2022/05/20 11:08:54;;;;;;;5.65;3.35;;;;;;;30.50;28.54;95913.38;5028218;28;20590;-78
2022/05/20 11:11:46;;;;;;;7.75;3.20;;;;;;;30.76;28.31;95906.22;5030442;28;20175;-76
2022/05/20 11:14:20;;;;;;;6.22;3.55;;;;;;;30.83;28.38;95904.06;5026765;28;20423;-79
2022/05/20 11:17:01;;;;;;;7.82;3.55;;;;;;;30.80;27.14;95883.16;5014215;28;20198;-77
2022/05/20 11:19:46;;;;;;;7.40;3.22;;;;;;;30.74;28.41;95866.25;5027134;28;20193;-76
2022/05/20 11:22:43;;;;;;;12.18;3.55;;;;;;;30.88;27.11;95853.16;5019642;28;20221;-76
2022/05/20 11:25:27;;;;;;;10.57;3.63;;;;;;;30.18;26.85;95837.47;5010486;28;20668;-76
2022/05/20 11:28:25;;;;;;;6.43;3.17;;;;;;;30.25;27.96;95839.13;5018130;28;20183;-77
2022/05/20 11:31:02;;;;;;;6.30;3.30;;;;;;;30.33;28.01;95835.91;4951167;28;20196;-77
2022/05/20 11:33:42;;;;;;;5.30;3.30;;;;;;;29.85;29.12;95835.19;5019216;28;20225;-76
2022/05/20 11:36:27;;;;;;;6.70;3.10;;;;;;;30.53;29.37;95835.94;5012715;28;20232;-76
2022/05/20 11:39:26;;;;;;;5.70;3.33;;;;;;;30.59;28.45;95826.84;5001242;28;20187;-77
2022/05/20 11:42:11;;;;;;;5.10;3.42;;;;;;;30.85;28.37;95830.38;5027396;28;20283;-76
2022/05/20 11:44:40;;;;;;;6.57;3.80;;;;;;;30.59;30.11;95829.53;5013406;28;20229;-77
2022/05/20 11:47:22;;;;;;;7.82;3.47;;;;;;;30.87;30.42;95816.69;5010624;28;20297;-77
2022/05/20 11:50:20;;;;;;;7.68;3.38;;;;;;;31.04;29.65;95816.41;5012087;28;20278;-77
2022/05/20 11:53:11;;;;;;;7.25;3.55;;;;;;;31.08;29.21;95804.03;5029119;28;20186;-77
2022/05/20 11:55:50;;;;;;;7.00;3.40;;;;;;;30.97;27.91;95798.69;5012070;28;20238;-77
2022/05/20 11:58:31;;;;;;;5.10;3.63;;;;;;;30.59;27.57;95791.19;5013774;28;20185;-76
2022/05/20 12:00:57;;;;;;;6.95;3.55;;;;;;;30.20;28.95;95783.66;5029804;28;20269;-77
2022/05/20 12:03:27;;;;;;;6.03;3.50;;;;;;;30.26;28.99;95781.78;5026208;28;20669;-79
2022/05/20 12:05:52;;;;;;;5.95;3.63;;;;;;;30.36;28.80;95776.44;5027293;28;20198;-79
2022/05/20 12:08:42;;;;;;;6.95;3.25;;;;;;;30.57;29.48;95769.19;5042870;28;20233;-75
2022/05/20 12:11:35;;;;;;;8.02;3.65;;;;;;;30.86;28.68;95764.94;5036664;28;20221;-76
2022/05/20 12:14:08;;;;;;;8.20;3.58;;;;;;;31.14;28.74;95766.22;5029922;28;20197;-76
2022/05/20 12:16:59;;;;;;;6.80;3.00;;;;;;;31.68;27.82;95759.34;5019900;28;20216;-75
2022/05/20 12:25:38;;;;;;;8.82;4.03;;;;;;;31.33;28.53;95745.00;5017997;28;20260;-76
2022/05/20 12:28:09;;;;;;;7.82;4.40;;;;;;;31.42;28.33;95755.97;5008265;28;20174;-77
2022/05/20 12:30:41;;;;;;;7.20;3.72;;;;;;;31.31;28.28;95736.44;5032475;28;20687;-77